Terminal Aerodrome Forecast
Issued by NWS Lubbock, TX

Home | Current Version | Previous Version | Text Only | Print | Product List | Glossary On
Versions: 1 2 3 4 5 6 7 8 9 10 11 12 13 14 15 16 17 18
000
FTUS44 KLUB 012300
TAFLBB
TAF
KLBB 012336Z 0200/0224 04007KT P6SM SCT120 BKN200
     FM020700 VRB05KT P6SM FEW070 SCT120 BKN250=

USA.gov is the U.S. government's official web portal to all federal, state and local government web resources and services.